Impacts METAR Board
IDs:

KSFO - San Francisco Intl, CA, US

Updated at: 1100 UTC 09 Jul 2020
Potential Impact None Slight Moderate High
Time 08/23Z 09/00Z 09/01Z 09/02Z 09/03Z 09/04Z 09/05Z 09/06Z 09/07Z 09/08Z 09/09Z 09/10Z 09/11Z
Temp68 68 64 62 60 58 57 56 55 56 56 56 56
Dewpt51 51 51 50 50 50 50 50 50 50 50 49 50
Altim29.87 29.86 29.85 29.86 29.87 29.87 29.89 29.89 29.89 29.88 29.88 29.88 29.87
VIS10 10 10 10 10 10 10 10 10 10 10 10 10
CIG-- -- -- -- -- -- -- -- -- -- -- -- --
CoverFEWFEWFEWFEWFEWFEWFEWFEWFEWFEWFEWFEWFEW
FltCatVFRVFRVFRVFRVFRVFRVFRVFRVFRVFRVFRVFRVFR
WX--------------------------
WDir300290310300290290280270270310300310300
WSpd19 16 13 15 18 14 14 12 11 3 5 5 6
WGst-- -- -- -- -- -- -- -- -- -- -- -- --
Raw hourly METARs
KSFO 082256Z 30019KT 10SM FEW014 20/11 A2987 RMK AO2 PK WND 30026/2217 SLP113 T02000106
KSFO 082356Z 29016KT 10SM FEW014 20/11 A2986 RMK AO2 SLP111 T02000106 10228 20194 58007
KSFO 090056Z 31013KT 10SM FEW014 18/11 A2985 RMK AO2 SLP109 T01780106
KSFO 090156Z 30015KT 10SM FEW012 17/10 A2986 RMK AO2 SLP110 T01670100
KSFO 090256Z 29018KT 10SM FEW012 16/10 A2987 RMK AO2 SLP114 T01560100 53003
KSFO 090356Z 29014KT 10SM FEW012 14/10 A2987 RMK AO2 SLP115 T01440100
KSFO 090456Z 28014KT 10SM FEW012 14/10 A2989 RMK AO2 SLP120 T01390100
KSFO 090556Z 27012KT 10SM FEW012 13/10 A2989 RMK AO2 SLP121 T01330100 10211 20133 51007
KSFO 090656Z 27011KT 10SM FEW011 13/10 A2989 RMK AO2 SLP121 T01280100
KSFO 090756Z 31003KT 10SM FEW011 13/10 A2988 RMK AO2 SLP119 T01330100 402280117
KSFO 090856Z 30005KT 10SM FEW011 13/10 A2988 RMK AO2 SLP117 T01330100 58004
KSFO 090956Z 31005KT 10SM FEW011 13/09 A2988 RMK AO2 SLP116 T01330094
KSFO 091056Z 30006KT 10SM FEW011 13/10 A2987 RMK AO2 SLP115 T01330100



Page loaded:  11:27 UTC  |   04:27 AM Pacific  |   05:27 AM Mountain  |   06:27 AM Central  |   07:27 AM Eastern

 

ADVISORIES

FORECASTS

FORECASTS

OBSERVATIONS

USER TOOLS

ABOUT US